createdAt,value
2019-02-24T00:00:20.709Z,8.6
2019-02-24T00:01:20.698Z,7.9
2019-02-24T00:02:20.690Z,7.9
2019-02-24T00:03:20.673Z,7.9
2019-02-24T00:04:20.692Z,7.5
2019-02-24T00:05:20.666Z,7.9
2019-02-24T00:06:20.649Z,8.0
2019-02-24T00:07:20.629Z,7.6
2019-02-24T00:08:20.658Z,8.1
2019-02-24T00:09:20.612Z,8.3
2019-02-24T00:10:20.595Z,8.1
2019-02-24T00:11:20.592Z,7.8
2019-02-24T00:12:20.585Z,7.9
2019-02-24T00:13:20.584Z,8.1
2019-02-24T00:14:20.562Z,7.5
2019-02-24T00:15:20.546Z,8.0
2019-02-24T00:16:20.537Z,7.6
2019-02-24T00:17:20.540Z,7.8
2019-02-24T00:18:20.511Z,8.1
2019-02-24T00:19:20.503Z,7.5
2019-02-24T00:20:20.522Z,8.3
2019-02-24T00:21:20.484Z,7.4
2019-02-24T00:22:20.469Z,7.6
2019-02-24T00:23:20.460Z,7.5
2019-02-24T00:24:20.455Z,7.5
2019-02-24T00:25:20.447Z,8.1
2019-02-24T00:26:20.426Z,8.0
2019-02-24T00:27:20.421Z,6.9
2019-02-24T00:28:20.430Z,7.4
2019-02-24T00:29:20.444Z,7.3
2019-02-24T00:30:20.387Z,7.5
2019-02-24T00:31:20.377Z,7.1
2019-02-24T00:32:20.436Z,7.0
2019-02-24T00:33:20.354Z,7.1
2019-02-24T00:34:20.341Z,7.0
2019-02-24T00:35:20.333Z,7.5
2019-02-24T00:36:20.335Z,7.5
2019-02-24T00:37:20.315Z,7.4
2019-02-24T00:38:20.875Z,7.0
2019-02-24T00:39:20.292Z,7.3
2019-02-24T00:40:20.343Z,7.0
2019-02-24T00:41:20.270Z,7.1
2019-02-24T00:42:20.260Z,7.5
2019-02-24T00:43:20.243Z,7.0
2019-02-24T00:44:20.241Z,7.0
2019-02-24T00:45:20.231Z,7.5
2019-02-24T00:46:20.225Z,7.4
2019-02-24T00:47:20.206Z,7.3
2019-02-24T00:48:20.204Z,7.3
2019-02-24T00:49:20.178Z,7.3
2019-02-24T00:50:20.237Z,7.5
2019-02-24T00:51:20.163Z,7.1
2019-02-24T00:52:20.151Z,7.1
2019-02-24T00:53:20.134Z,7.0
2019-02-24T00:54:20.132Z,7.4
2019-02-24T00:55:20.127Z,6.9
2019-02-24T00:56:20.118Z,6.5
2019-02-24T00:57:20.130Z,7.3
2019-02-24T00:58:20.090Z,6.4
2019-02-24T00:59:20.067Z,7.5
2019-02-24T01:00:20.071Z,7.4
2019-02-24T01:01:20.057Z,7.8
2019-02-24T01:02:20.045Z,7.0
2019-02-24T01:03:20.032Z,6.9
2019-02-24T01:04:20.021Z,7.3
2019-02-24T01:05:20.004Z,6.9
2019-02-24T01:06:20.006Z,7.5
2019-02-24T01:07:19.980Z,7.1
2019-02-24T01:08:19.972Z,7.9
2019-02-24T01:09:19.976Z,7.3
2019-02-24T01:10:19.950Z,7.4
2019-02-24T01:11:19.953Z,6.8
2019-02-24T01:12:19.946Z,7.5
2019-02-24T01:13:19.926Z,7.1
2019-02-24T01:14:19.905Z,7.9
2019-02-24T01:15:19.907Z,8.1
2019-02-24T01:16:19.894Z,6.6
2019-02-24T01:17:19.932Z,7.3
2019-02-24T01:18:19.865Z,7.3
2019-02-24T01:19:19.853Z,7.3
2019-02-24T01:20:19.851Z,7.0
2019-02-24T01:21:19.833Z,7.5
2019-02-24T01:22:19.832Z,7.1
2019-02-24T01:23:19.819Z,7.4
2019-02-24T01:24:19.806Z,7.5
2019-02-24T01:25:19.793Z,7.5
2019-02-24T01:26:19.773Z,7.4
2019-02-24T01:27:19.777Z,7.6
2019-02-24T01:28:25.206Z,7.4
2019-02-24T01:29:19.745Z,7.5
2019-02-24T01:30:19.733Z,7.3
2019-02-24T01:31:19.732Z,7.3
2019-02-24T01:32:19.716Z,7.6
2019-02-24T01:33:19.700Z,7.6
2019-02-24T01:34:19.731Z,7.8
2019-02-24T01:35:19.673Z,7.5
2019-02-24T01:36:19.689Z,7.4
2019-02-24T01:37:19.657Z,7.0
2019-02-24T01:38:19.647Z,7.5
2019-02-24T01:39:19.633Z,7.6
2019-02-24T01:40:19.640Z,7.9
2019-02-24T01:41:19.616Z,7.5
2019-02-24T01:42:19.618Z,7.4
2019-02-24T01:43:19.608Z,7.6
2019-02-24T01:44:19.582Z,7.3
2019-02-24T01:45:19.570Z,7.0
2019-02-24T01:46:19.561Z,7.4
2019-02-24T01:47:19.569Z,7.6
2019-02-24T01:48:21.126Z,7.5
2019-02-24T01:49:19.608Z,7.6
2019-02-24T01:50:19.566Z,7.4
2019-02-24T01:51:19.507Z,7.5
2019-02-24T01:52:19.497Z,7.5
2019-02-24T01:53:19.569Z,7.6
2019-02-24T01:54:19.482Z,6.9
2019-02-24T01:55:19.462Z,7.6
2019-02-24T01:56:19.459Z,7.1
2019-02-24T01:57:19.453Z,7.5
2019-02-24T01:58:19.429Z,7.1
2019-02-24T01:59:19.433Z,7.4
2019-02-24T02:00:19.410Z,7.8
2019-02-24T02:01:19.413Z,7.1
2019-02-24T02:02:19.385Z,7.1
2019-02-24T02:03:19.433Z,7.4
2019-02-24T02:04:19.381Z,6.9
2019-02-24T02:05:19.349Z,7.5
2019-02-24T02:06:19.341Z,7.0
2019-02-24T02:07:19.337Z,7.1
2019-02-24T02:08:19.348Z,7.0
2019-02-24T02:09:19.313Z,7.3
2019-02-24T02:10:19.305Z,7.1
2019-02-24T02:11:19.298Z,7.1
2019-02-24T02:12:19.295Z,7.5
2019-02-24T02:13:19.269Z,7.3
2019-02-24T02:14:19.254Z,6.8
2019-02-24T02:15:19.242Z,7.3
2019-02-24T02:16:19.236Z,7.5
2019-02-24T02:17:19.227Z,7.1
2019-02-24T02:18:19.217Z,7.5
2019-02-24T02:19:19.214Z,7.0
2019-02-24T02:20:19.198Z,7.0
2019-02-24T02:21:19.184Z,7.3
2019-02-24T02:22:19.187Z,7.4
2019-02-24T02:23:19.168Z,7.0
2019-02-24T02:24:19.179Z,7.0
2019-02-24T02:25:19.148Z,7.4
2019-02-24T02:26:19.127Z,7.1
2019-02-24T02:27:19.125Z,7.5
2019-02-24T02:28:19.110Z,7.4
2019-02-24T02:29:19.090Z,7.5
2019-02-24T02:30:19.099Z,6.6
2019-02-24T02:31:19.072Z,7.4
2019-02-24T02:32:19.063Z,7.4
2019-02-24T02:33:19.061Z,7.1
2019-02-24T02:34:19.074Z,7.0
2019-02-24T02:35:19.030Z,7.4
2019-02-24T02:36:19.017Z,7.5
2019-02-24T02:37:19.023Z,7.6
2019-02-24T02:38:19.001Z,6.9
2019-02-24T02:39:19.022Z,7.0
2019-02-24T02:40:18.991Z,7.1
2019-02-24T02:41:18.978Z,7.1
2019-02-24T02:42:18.955Z,6.9
2019-02-24T02:43:18.944Z,7.0
2019-02-24T02:44:18.956Z,7.0
2019-02-24T02:45:18.923Z,7.3
2019-02-24T02:46:18.916Z,7.3
2019-02-24T02:47:18.924Z,7.4
2019-02-24T02:48:18.890Z,7.0
2019-02-24T02:49:18.923Z,6.9
2019-02-24T02:50:18.878Z,6.9
2019-02-24T02:51:18.866Z,6.9
2019-02-24T02:52:18.860Z,7.3
2019-02-24T02:53:18.839Z,6.5
2019-02-24T02:54:18.840Z,6.6
2019-02-24T02:55:18.820Z,6.8
2019-02-24T02:56:18.800Z,6.8
2019-02-24T02:57:18.816Z,7.4
2019-02-24T02:58:18.786Z,6.9
2019-02-24T02:59:18.769Z,6.5
2019-02-24T03:00:18.759Z,6.6
2019-02-24T03:01:18.750Z,6.9
2019-02-24T03:02:24.318Z,6.9
2019-02-24T03:03:43.665Z,7.0
2019-02-24T03:04:43.654Z,6.8
2019-02-24T03:05:43.644Z,6.9
2019-02-24T03:06:43.639Z,7.0
2019-02-24T03:07:43.616Z,6.8
2019-02-24T03:08:43.610Z,7.0
2019-02-24T03:09:43.600Z,6.5
2019-02-24T03:10:43.612Z,7.0
2019-02-24T03:11:43.575Z,7.3
2019-02-24T03:12:43.564Z,6.5
2019-02-24T03:13:43.550Z,7.3
2019-02-24T03:14:43.563Z,7.3
2019-02-24T03:15:43.529Z,6.4
2019-02-24T03:16:43.522Z,7.0
2019-02-24T03:17:43.541Z,7.1
2019-02-24T03:18:43.520Z,6.9
2019-02-24T03:19:43.490Z,6.5
2019-02-24T03:20:43.475Z,6.8
2019-02-24T03:21:43.498Z,7.0
2019-02-24T03:22:43.455Z,7.1
2019-02-24T03:23:43.507Z,7.0
2019-02-24T03:24:43.432Z,7.0
2019-02-24T03:25:43.424Z,6.8
2019-02-24T03:26:43.502Z,6.5
2019-02-24T03:27:43.409Z,6.5
2019-02-24T03:28:43.383Z,6.5
2019-02-24T03:29:43.380Z,6.5
2019-02-24T03:30:43.383Z,6.6
2019-02-24T03:31:43.389Z,7.0
2019-02-24T03:32:43.355Z,7.0
2019-02-24T03:33:44.924Z,7.0
2019-02-24T03:34:43.336Z,6.8
2019-02-24T03:35:43.314Z,7.3
2019-02-24T03:36:43.309Z,7.0
2019-02-24T03:37:43.320Z,6.6
2019-02-24T03:38:43.293Z,7.0
2019-02-24T03:39:43.283Z,7.1
2019-02-24T03:40:43.300Z,6.8
2019-02-24T03:41:43.254Z,6.8
2019-02-24T03:42:43.234Z,7.1
2019-02-24T03:43:43.226Z,7.0
2019-02-24T03:44:43.217Z,7.0
2019-02-24T03:45:43.217Z,7.3
2019-02-24T03:46:43.195Z,6.6
2019-02-24T03:47:43.183Z,7.0
2019-02-24T03:48:43.171Z,7.3
2019-02-24T03:49:43.175Z,7.0
2019-02-24T03:50:43.190Z,6.8
2019-02-24T03:51:43.155Z,7.3
2019-02-24T03:52:43.126Z,6.6
2019-02-24T03:53:43.118Z,7.0
2019-02-24T03:54:43.105Z,7.4
2019-02-24T03:55:43.110Z,7.4
2019-02-24T03:56:43.088Z,6.6
2019-02-24T03:57:43.076Z,7.0
2019-02-24T03:58:43.119Z,7.0
2019-02-24T03:59:43.063Z,6.5
2019-02-24T04:00:43.046Z,6.8
2019-02-24T04:01:43.024Z,6.6
2019-02-24T04:02:43.050Z,7.0
2019-02-24T04:03:43.041Z,6.9
2019-02-24T04:04:43.010Z,7.0
2019-02-24T04:05:42.989Z,6.8
2019-02-24T04:06:42.982Z,7.1
2019-02-24T04:07:42.978Z,6.9
2019-02-24T04:08:42.971Z,7.0
2019-02-24T04:09:42.946Z,6.9
2019-02-24T04:10:42.940Z,7.0
2019-02-24T04:11:42.917Z,6.6
2019-02-24T04:12:42.923Z,7.0
2019-02-24T04:13:42.902Z,6.9
2019-02-24T04:14:42.923Z,7.1
2019-02-24T04:15:42.891Z,6.6
2019-02-24T04:16:42.872Z,6.8
2019-02-24T04:17:42.861Z,6.1
2019-02-24T04:18:42.849Z,6.5
2019-02-24T04:19:42.837Z,6.4
2019-02-24T04:20:42.813Z,6.5
2019-02-24T04:21:42.834Z,6.4
2019-02-24T04:22:42.810Z,6.0
2019-02-24T04:23:42.785Z,6.3
2019-02-24T04:24:42.774Z,6.5
2019-02-24T04:25:42.765Z,6.1
2019-02-24T04:26:42.776Z,6.0
2019-02-24T04:27:42.740Z,6.4
2019-02-24T04:28:42.739Z,6.6
2019-02-24T04:29:42.721Z,6.0
2019-02-24T04:30:42.727Z,6.5
2019-02-24T04:31:42.699Z,6.5
2019-02-24T04:32:42.774Z,6.4
2019-02-24T04:33:42.676Z,6.0
2019-02-24T04:34:42.665Z,6.3
2019-02-24T04:35:42.654Z,6.1
2019-02-24T04:36:42.649Z,6.3
2019-02-24T04:37:42.639Z,6.4
2019-02-24T04:38:42.626Z,6.8
2019-02-24T04:39:42.611Z,6.0
2019-02-24T04:40:42.603Z,5.9
2019-02-24T04:41:42.593Z,5.9
2019-02-24T04:42:42.588Z,5.8
2019-02-24T04:43:42.566Z,5.9
2019-02-24T04:44:42.566Z,6.1
2019-02-24T04:45:42.545Z,5.9
2019-02-24T04:46:42.544Z,5.8
2019-02-24T04:47:42.529Z,6.3
2019-02-24T04:48:42.523Z,6.3
2019-02-24T04:49:42.577Z,5.6
2019-02-24T04:50:42.512Z,5.8
2019-02-24T04:51:42.485Z,6.0
2019-02-24T04:52:42.470Z,6.0
2019-02-24T04:53:42.463Z,6.1
2019-02-24T04:54:42.478Z,6.5
2019-02-24T04:55:42.450Z,6.4
2019-02-24T04:56:42.425Z,6.1
2019-02-24T04:57:42.469Z,6.3
2019-02-24T04:58:42.432Z,5.9
2019-02-24T04:59:42.392Z,6.3
2019-02-24T05:00:42.436Z,6.0
2019-02-24T05:01:42.373Z,6.0
2019-02-24T05:02:42.362Z,6.0
2019-02-24T05:03:42.347Z,6.5
2019-02-24T05:04:42.335Z,6.1
2019-02-24T05:05:42.328Z,6.4
2019-02-24T05:06:42.431Z,6.3
2019-02-24T05:07:42.302Z,5.9
2019-02-24T05:08:42.298Z,5.9
2019-02-24T05:09:42.280Z,6.0
2019-02-24T05:10:42.271Z,5.9
2019-02-24T05:11:42.268Z,6.6
2019-02-24T05:12:42.265Z,6.1
2019-02-24T05:13:42.334Z,6.5
2019-02-24T05:14:42.232Z,6.1
2019-02-24T05:15:42.238Z,6.1
2019-02-24T05:16:42.207Z,5.9
2019-02-24T05:17:42.212Z,6.0
2019-02-24T05:18:42.197Z,6.3
2019-02-24T05:19:42.183Z,5.9
2019-02-24T05:20:42.168Z,5.6
2019-02-24T05:21:42.148Z,6.4
2019-02-24T05:22:42.146Z,6.1
2019-02-24T05:23:43.076Z,6.8
2019-02-24T05:24:42.145Z,6.8
2019-02-24T05:25:42.113Z,6.5
2019-02-24T05:26:42.124Z,6.1
2019-02-24T05:27:42.087Z,6.3
2019-02-24T05:28:42.122Z,6.5
2019-02-24T05:29:45.730Z,6.4
2019-02-24T05:30:42.101Z,6.3
2019-02-24T05:31:42.052Z,5.9
2019-02-24T05:32:42.029Z,6.3
2019-02-24T05:33:42.017Z,6.1
2019-02-24T05:34:42.037Z,6.1
2019-02-24T05:35:41.999Z,5.9
2019-02-24T05:36:41.988Z,6.1
2019-02-24T05:37:41.977Z,6.0
2019-02-24T05:38:41.968Z,6.3
2019-02-24T05:39:41.969Z,6.5
2019-02-24T05:40:41.948Z,6.3
2019-02-24T05:41:41.943Z,6.4
2019-02-24T05:42:42.609Z,6.5
2019-02-24T05:43:41.915Z,6.5
2019-02-24T05:44:41.907Z,7.0
2019-02-24T05:45:41.888Z,6.1
2019-02-24T05:46:41.886Z,6.4
2019-02-24T05:47:41.882Z,6.1
2019-02-24T05:48:41.853Z,6.1
2019-02-24T05:49:41.853Z,6.6
2019-02-24T05:50:41.841Z,6.1
2019-02-24T05:51:41.821Z,6.5
2019-02-24T05:52:41.806Z,6.4
2019-02-24T05:53:41.802Z,6.3
2019-02-24T05:54:41.784Z,6.0
2019-02-24T05:55:41.782Z,6.0
2019-02-24T05:56:41.772Z,5.69
2019-02-24T05:57:41.751Z,6.09
2019-02-24T05:58:41.749Z,6.30
2019-02-24T05:59:41.837Z,6.09
2019-02-24T06:00:41.720Z,6.09
2019-02-24T06:01:41.748Z,6.59
2019-02-24T06:02:41.700Z,6.30
2019-02-24T06:03:41.693Z,6.30
2019-02-24T06:04:41.898Z,6.59
2019-02-24T06:05:41.743Z,6.09
2019-02-24T06:06:41.672Z,6.19
2019-02-24T06:07:41.649Z,6.30
2019-02-24T06:08:41.643Z,6.40
2019-02-24T06:09:41.639Z,6.00
2019-02-24T06:10:41.655Z,6.40
2019-02-24T06:11:41.679Z,6.30
2019-02-24T06:12:41.608Z,6.19
2019-02-24T06:13:41.581Z,6.09
2019-02-24T06:14:41.569Z,6.40
2019-02-24T06:15:41.564Z,6.30
2019-02-24T06:16:41.550Z,6.19
2019-02-24T06:17:41.643Z,6.00
2019-02-24T06:18:41.526Z,6.19
2019-02-24T06:19:41.515Z,6.50
2019-02-24T06:20:41.509Z,6.30
2019-02-24T06:21:41.607Z,6.30
2019-02-24T06:22:41.482Z,6.30
2019-02-24T06:23:41.487Z,6.30
2019-02-24T06:24:41.469Z,6.40
2019-02-24T06:25:41.454Z,6.19
2019-02-24T06:26:41.435Z,6.59
2019-02-24T06:27:41.430Z,6.30
2019-02-24T06:28:41.418Z,6.00
2019-02-24T06:29:41.414Z,6.30
2019-02-24T06:30:41.398Z,6.59
2019-02-24T06:31:41.387Z,6.50
2019-02-24T06:32:41.368Z,6.80
2019-02-24T06:33:41.363Z,6.50
2019-02-24T06:34:41.352Z,6.19
2019-02-24T06:35:41.348Z,6.69
2019-02-24T06:36:41.330Z,6.09
2019-02-24T06:37:41.332Z,6.50
2019-02-24T06:38:41.308Z,6.80
2019-02-24T06:39:41.300Z,6.19
2019-02-24T06:40:41.284Z,6.59
2019-02-24T06:41:41.279Z,6.40
2019-02-24T06:42:41.272Z,6.00
2019-02-24T06:43:41.267Z,6.40
2019-02-24T06:44:41.324Z,5.90
2019-02-24T06:45:41.233Z,6.50
2019-02-24T06:46:41.235Z,6.09
2019-02-24T06:47:41.267Z,5.90
2019-02-24T06:48:41.193Z,6.19
2019-02-24T06:49:41.230Z,6.00
2019-02-24T06:50:41.186Z,6.59
2019-02-24T06:51:41.182Z,6.30
2019-02-24T06:52:41.228Z,6.00
2019-02-24T06:53:41.142Z,6.40
2019-02-24T06:54:41.183Z,6.40
2019-02-24T06:55:41.121Z,6.09
2019-02-24T06:56:41.110Z,5.69
2019-02-24T06:57:41.110Z,6.30
2019-02-24T06:58:41.094Z,6.19
2019-02-24T06:59:41.159Z,6.30
2019-02-24T07:00:41.250Z,6.19
2019-02-24T07:01:41.055Z,6.00
2019-02-24T07:02:41.070Z,6.00
2019-02-24T07:03:41.027Z,5.90
2019-02-24T07:04:41.031Z,6.30
2019-02-24T07:05:41.012Z,5.69
2019-02-24T07:06:40.999Z,6.09
2019-02-24T07:07:41.026Z,6.40
2019-02-24T07:08:40.973Z,5.90
2019-02-24T07:09:40.967Z,6.09
2019-02-24T07:10:41.024Z,6.19
2019-02-24T07:11:40.940Z,5.90
2019-02-24T07:12:40.927Z,6.00
2019-02-24T07:13:40.988Z,6.09
2019-02-24T07:14:40.908Z,5.90
2019-02-24T07:15:40.894Z,6.00
2019-02-24T07:16:40.885Z,6.30
2019-02-24T07:17:40.888Z,5.69
2019-02-24T07:18:40.867Z,6.40
2019-02-24T07:19:40.883Z,6.50
2019-02-24T07:20:40.850Z,6.09
2019-02-24T07:21:40.839Z,6.40
2019-02-24T07:22:40.820Z,6.19
2019-02-24T07:23:40.833Z,6.50
2019-02-24T07:24:40.799Z,6.19
2019-02-24T07:25:40.807Z,6.19
2019-02-24T07:26:40.781Z,6.50
2019-02-24T07:27:40.759Z,6.59
2019-02-24T07:28:40.756Z,6.59
2019-02-24T07:29:40.737Z,5.80
2019-02-24T07:30:40.729Z,6.50
2019-02-24T07:31:40.807Z,6.19
2019-02-24T07:32:40.725Z,6.40
2019-02-24T07:33:40.693Z,6.40
2019-02-24T07:34:40.706Z,6.09
2019-02-24T07:35:40.693Z,6.19
2019-02-24T07:36:40.662Z,6.40
2019-02-24T07:37:40.651Z,6.40
2019-02-24T07:38:40.638Z,6.30
2019-02-24T07:39:40.631Z,6.69
2019-02-24T07:40:40.617Z,6.50
2019-02-24T07:41:40.618Z,5.90
2019-02-24T07:42:40.601Z,6.50
2019-02-24T07:43:40.598Z,6.40
2019-02-24T07:44:40.573Z,6.30
2019-02-24T07:45:40.562Z,5.80
2019-02-24T07:46:40.557Z,6.09
2019-02-24T07:47:40.667Z,6.50
2019-02-24T07:48:40.526Z,5.90
2019-02-24T07:49:40.657Z,6.00
2019-02-24T07:50:40.507Z,6.09
2019-02-24T07:51:40.495Z,6.09
2019-02-24T07:52:40.486Z,6.30
2019-02-24T07:53:40.479Z,6.09
2019-02-24T07:54:40.467Z,6.19
2019-02-24T07:55:40.452Z,6.30
2019-02-24T07:56:40.436Z,6.19
2019-02-24T07:57:40.422Z,6.30
2019-02-24T07:58:40.417Z,5.80
2019-02-24T07:59:40.406Z,6.19
2019-02-24T08:00:40.392Z,5.90
2019-02-24T08:01:40.382Z,6.30
2019-02-24T08:02:40.392Z,6.19
2019-02-24T08:03:40.381Z,6.09
2019-02-24T08:04:40.348Z,5.69
2019-02-24T08:05:40.349Z,5.90
2019-02-24T08:06:40.327Z,6.09
2019-02-24T08:07:40.314Z,6.50
2019-02-24T08:08:40.305Z,6.30
2019-02-24T08:09:40.298Z,6.40
2019-02-24T08:10:40.297Z,6.40
2019-02-24T08:11:40.274Z,6.09
2019-02-24T08:12:40.260Z,6.19
2019-02-24T08:13:40.255Z,6.19
2019-02-24T08:14:40.240Z,6.40
2019-02-24T08:15:40.237Z,6.19
2019-02-24T08:16:40.264Z,5.69
2019-02-24T08:17:40.203Z,5.59
2019-02-24T08:18:49.042Z,6.19
2019-02-24T08:19:41.185Z,5.90
2019-02-24T08:20:40.178Z,5.80
2019-02-24T08:21:40.208Z,5.40
2019-02-24T08:22:40.162Z,5.40
2019-02-24T08:23:40.146Z,5.80
2019-02-24T08:24:40.125Z,5.59
2019-02-24T08:25:40.176Z,5.69
2019-02-24T08:26:40.107Z,6.00
2019-02-24T08:27:40.101Z,5.90
2019-02-24T08:28:40.097Z,5.59
2019-02-24T08:29:40.092Z,5.69
2019-02-24T08:30:41.852Z,5.59
2019-02-24T08:31:40.059Z,5.50
2019-02-24T08:32:40.036Z,5.50
2019-02-24T08:33:40.029Z,5.59
2019-02-24T08:34:40.030Z,5.59
2019-02-24T08:35:40.005Z,5.09
2019-02-24T08:36:40.001Z,5.30
2019-02-24T08:37:39.982Z,5.00
2019-02-24T08:38:40.503Z,5.30
2019-02-24T08:39:39.962Z,5.30
2019-02-24T08:40:39.997Z,5.09
2019-02-24T08:41:39.940Z,5.30
2019-02-24T08:42:39.935Z,5.30
2019-02-24T08:43:39.914Z,5.40
2019-02-24T08:44:39.909Z,4.90
2019-02-24T08:45:39.956Z,5.50
2019-02-24T08:46:39.881Z,5.19
2019-02-24T08:47:39.883Z,5.09
2019-02-24T08:48:39.862Z,5.09
2019-02-24T08:49:39.855Z,5.09
2019-02-24T08:50:39.842Z,5.19
2019-02-24T08:51:39.837Z,4.90
2019-02-24T08:52:39.824Z,5.09
2019-02-24T08:53:39.809Z,5.00
2019-02-24T08:54:39.802Z,4.80
2019-02-24T08:55:39.785Z,4.80
2019-02-24T08:56:39.772Z,5.40
2019-02-24T08:57:39.765Z,4.50
2019-02-24T08:58:39.754Z,4.90
2019-02-24T08:59:39.739Z,4.80
2019-02-24T09:00:39.736Z,5.00
2019-02-24T09:01:39.716Z,4.69
2019-02-24T09:02:39.724Z,4.40
2019-02-24T09:03:39.700Z,4.59
2019-02-24T09:04:39.685Z,4.69
2019-02-24T09:05:39.685Z,4.80
2019-02-24T09:06:39.670Z,5.00
2019-02-24T09:07:39.656Z,4.59
2019-02-24T09:08:39.661Z,5.00
2019-02-24T09:09:39.633Z,4.50
2019-02-24T09:10:39.618Z,4.30
2019-02-24T09:11:39.613Z,4.30
2019-02-24T09:12:39.596Z,4.40
2019-02-24T09:13:39.590Z,3.90
2019-02-24T09:14:39.587Z,4.30
2019-02-24T09:15:39.589Z,4.19
2019-02-24T09:16:39.553Z,4.30
2019-02-24T09:17:39.543Z,4.50
2019-02-24T09:18:39.534Z,4.19
2019-02-24T09:19:39.582Z,4.40
2019-02-24T09:20:39.524Z,4.00
2019-02-24T09:21:39.506Z,3.90
2019-02-24T09:22:39.493Z,4.30
2019-02-24T09:23:39.500Z,4.00
2019-02-24T09:24:39.471Z,3.70
2019-02-24T09:25:39.458Z,3.79
2019-02-24T09:26:39.457Z,4.30
2019-02-24T09:27:39.443Z,4.19
2019-02-24T09:28:39.444Z,4.09
2019-02-24T09:29:39.429Z,4.30
2019-02-24T09:30:39.406Z,4.19
2019-02-24T09:31:39.390Z,3.90
2019-02-24T09:32:39.396Z,3.79
2019-02-24T09:33:39.395Z,3.79
2019-02-24T09:34:39.362Z,4.19
2019-02-24T09:35:39.386Z,3.79
2019-02-24T09:36:39.344Z,3.90
2019-02-24T09:37:39.342Z,3.79
2019-02-24T09:38:39.317Z,4.19
2019-02-24T09:39:39.311Z,3.59
2019-02-24T09:40:39.295Z,3.90
2019-02-24T09:41:39.283Z,4.00
2019-02-24T09:42:39.278Z,3.59
2019-02-24T09:43:39.310Z,3.50
2019-02-24T09:44:39.256Z,3.50
2019-02-24T09:45:39.248Z,4.09
2019-02-24T09:46:39.228Z,3.79
2019-02-24T09:47:46.410Z,4.09
2019-02-24T09:48:40.214Z,4.00
2019-02-24T09:49:39.201Z,3.70
2019-02-24T09:50:39.240Z,3.90
2019-02-24T09:51:39.182Z,4.09
2019-02-24T09:52:39.171Z,3.59
2019-02-24T09:53:39.170Z,4.00
2019-02-24T09:54:39.160Z,3.70
2019-02-24T09:55:39.143Z,4.59
2019-02-24T09:56:39.178Z,3.90
2019-02-24T09:57:39.155Z,3.59
2019-02-24T09:58:39.193Z,3.79
2019-02-24T09:59:39.099Z,3.70
2019-02-24T10:00:39.090Z,4.00
2019-02-24T10:01:39.070Z,3.70
2019-02-24T10:02:39.063Z,3.59
2019-02-24T10:03:39.044Z,3.90
2019-02-24T10:04:39.038Z,3.29
2019-02-24T10:05:39.148Z,4.09
2019-02-24T10:06:39.027Z,3.50
2019-02-24T10:07:39.015Z,3.50
2019-02-24T10:08:38.992Z,3.59
2019-02-24T10:09:39.125Z,3.59
2019-02-24T10:10:38.987Z,3.79
2019-02-24T10:11:38.960Z,3.50
2019-02-24T10:12:38.957Z,3.79
2019-02-24T10:13:38.931Z,3.70
2019-02-24T10:14:38.929Z,3.50
2019-02-24T10:15:38.916Z,3.40
2019-02-24T10:16:38.910Z,3.59
2019-02-24T10:17:38.893Z,3.59
2019-02-24T10:18:38.885Z,3.59
2019-02-24T10:19:38.878Z,3.79
2019-02-24T10:20:38.854Z,3.59
2019-02-24T10:21:38.858Z,4.00
2019-02-24T10:22:38.839Z,4.00
2019-02-24T10:23:38.821Z,3.59
2019-02-24T10:24:38.821Z,3.59
2019-02-24T10:25:38.803Z,3.40
2019-02-24T10:26:38.797Z,3.50
2019-02-24T10:27:38.783Z,3.40
2019-02-24T10:28:38.816Z,3.90
2019-02-24T10:29:38.804Z,3.59
2019-02-24T10:30:38.758Z,3.50
2019-02-24T10:31:38.752Z,3.70
2019-02-24T10:32:38.725Z,3.59
2019-02-24T10:33:38.729Z,3.70
2019-02-24T10:34:38.889Z,3.59
2019-02-24T10:35:38.729Z,3.70
2019-02-24T10:36:38.694Z,3.59
2019-02-24T10:37:38.835Z,3.79
2019-02-24T10:38:38.656Z,3.70
2019-02-24T10:39:38.651Z,3.50
2019-02-24T10:40:38.701Z,3.50
2019-02-24T10:41:38.644Z,3.29
2019-02-24T10:42:38.610Z,3.50
2019-02-24T10:52:40.506Z,3.09
2019-02-24T10:52:40.826Z,3.09
2019-02-24T10:52:40.836Z,3.20
2019-02-24T10:53:38.498Z,3.29
2019-02-24T10:54:38.617Z,3.40
2019-02-24T10:55:38.505Z,3.20
2019-02-24T10:56:38.484Z,3.09
2019-02-24T10:57:38.456Z,3.20
2019-02-24T10:58:38.442Z,3.29
2019-02-24T10:59:38.428Z,3.09
2019-02-24T11:00:38.418Z,3.09
2019-02-24T11:01:38.456Z,3.09
2019-02-24T11:02:38.418Z,3.00
2019-02-24T11:03:38.383Z,3.09
2019-02-24T11:04:38.387Z,3.20
2019-02-24T11:05:38.397Z,2.90
2019-02-24T11:06:38.374Z,2.79
2019-02-24T11:07:38.338Z,3.00
2019-02-24T11:08:38.344Z,3.20
2019-02-24T11:09:38.407Z,3.00
2019-02-24T11:10:38.326Z,2.79
2019-02-24T11:11:38.294Z,2.90
2019-02-24T11:12:38.334Z,3.09
2019-02-24T11:13:38.275Z,2.90
2019-02-24T11:14:38.266Z,2.90
2019-02-24T11:15:38.253Z,2.70
2019-02-24T11:16:38.365Z,3.00
2019-02-24T11:17:38.225Z,2.70
2019-02-24T11:18:38.234Z,2.79
2019-02-24T11:19:38.257Z,2.70
2019-02-24T11:20:38.219Z,3.09
2019-02-24T11:21:38.330Z,2.90
2019-02-24T11:22:38.196Z,2.90
2019-02-24T11:23:38.280Z,2.90
2019-02-24T11:24:38.155Z,2.70
2019-02-24T11:25:38.208Z,2.90
2019-02-24T11:26:38.138Z,2.90
2019-02-24T11:27:38.140Z,2.59
2019-02-24T11:28:38.199Z,2.59
2019-02-24T11:29:38.094Z,2.70
2019-02-24T11:30:38.088Z,2.79
2019-02-24T11:31:38.655Z,2.90
2019-02-24T11:32:38.135Z,2.70
2019-02-24T11:33:38.051Z,2.79
2019-02-24T11:34:38.063Z,3.00
2019-02-24T11:35:38.088Z,2.79
2019-02-24T11:36:38.036Z,2.70
2019-02-24T11:37:38.038Z,2.59
2019-02-24T11:38:38.000Z,2.40
2019-02-24T11:39:37.987Z,2.79
2019-02-24T11:40:37.989Z,2.59
2019-02-24T11:41:37.970Z,3.00
2019-02-24T11:42:37.956Z,2.70
2019-02-24T11:43:37.944Z,3.00
2019-02-24T11:44:37.934Z,3.00
2019-02-24T11:45:37.925Z,2.79
2019-02-24T11:46:37.928Z,2.50
2019-02-24T11:47:37.903Z,2.90
2019-02-24T11:48:37.886Z,2.50
2019-02-24T11:49:37.891Z,2.50
2019-02-24T11:50:37.869Z,2.79
2019-02-24T11:51:37.856Z,2.79
2019-02-24T11:52:37.840Z,2.70
2019-02-24T11:53:37.840Z,2.40
2019-02-24T11:54:37.848Z,2.70
2019-02-24T11:55:37.814Z,2.50
2019-02-24T11:56:37.796Z,2.50
2019-02-24T11:57:37.974Z,2.29
2019-02-24T11:58:37.783Z,2.70
2019-02-24T11:59:37.803Z,2.40
2019-02-24T12:00:37.762Z,2.09
2019-02-24T12:01:37.747Z,2.29
2019-02-24T12:02:38.521Z,2.40
2019-02-24T12:03:37.719Z,2.50
2019-02-24T12:04:37.710Z,2.70
2019-02-24T12:05:37.713Z,2.50
2019-02-24T12:06:37.686Z,2.29
2019-02-24T12:07:37.688Z,2.29
2019-02-24T12:08:37.709Z,2.40
2019-02-24T12:09:37.654Z,2.50
2019-02-24T12:10:37.659Z,2.40
2019-02-24T12:11:37.736Z,2.20
2019-02-24T12:12:37.627Z,2.29
2019-02-24T12:13:37.621Z,2.20
2019-02-24T12:14:37.609Z,1.90
2019-02-24T12:15:37.595Z,2.09
2019-02-24T12:16:37.577Z,2.29
2019-02-24T12:17:37.577Z,2.29
2019-02-24T12:18:37.554Z,1.90
2019-02-24T12:19:37.595Z,2.20
2019-02-24T12:20:37.547Z,2.00
2019-02-24T12:21:37.523Z,2.20
2019-02-24T12:22:37.517Z,2.09
2019-02-24T12:23:37.500Z,2.00
2019-02-24T12:24:37.525Z,2.09
2019-02-24T12:25:37.484Z,2.09
2019-02-24T12:26:37.469Z,2.09
2019-02-24T12:27:37.464Z,2.00
2019-02-24T12:28:37.453Z,2.00
2019-02-24T12:29:37.461Z,2.20
2019-02-24T12:30:37.445Z,1.90
2019-02-24T12:31:37.427Z,1.90
2019-02-24T12:32:37.413Z,1.70
2019-02-24T12:33:37.397Z,2.09
2019-02-24T12:34:37.391Z,1.79
2019-02-24T12:35:37.372Z,2.09
2019-02-24T12:36:37.388Z,2.09
2019-02-24T12:37:37.361Z,1.79
2019-02-24T12:38:37.344Z,1.90
2019-02-24T12:39:37.333Z,2.09
2019-02-24T12:40:37.338Z,2.00
2019-02-24T12:41:37.312Z,1.90
2019-02-24T12:42:37.309Z,2.00
2019-02-24T12:43:37.288Z,2.00
2019-02-24T12:44:37.278Z,1.90
2019-02-24T12:45:37.266Z,1.90
2019-02-24T12:46:37.474Z,1.90
2019-02-24T12:47:37.236Z,1.79
2019-02-24T12:48:37.348Z,2.00
2019-02-24T12:49:37.219Z,1.79
2019-02-24T12:50:37.201Z,2.20
2019-02-24T12:51:37.195Z,2.00
2019-02-24T12:52:37.182Z,2.09
2019-02-24T12:53:37.174Z,2.20
2019-02-24T12:54:37.158Z,2.09
2019-02-24T12:55:37.151Z,1.79
2019-02-24T12:56:37.150Z,2.09
2019-02-24T12:57:37.133Z,1.90
2019-02-24T12:58:37.136Z,2.50
2019-02-24T12:59:37.107Z,2.50
2019-02-24T13:00:37.110Z,2.59
2019-02-24T13:01:37.081Z,2.50
2019-02-24T13:02:37.087Z,2.40
2019-02-24T13:03:37.065Z,2.40
2019-02-24T13:04:37.053Z,2.50
2019-02-24T13:05:37.063Z,2.70
2019-02-24T13:06:37.066Z,2.50
2019-02-24T13:07:37.025Z,2.40
2019-02-24T13:08:37.011Z,2.20
2019-02-24T13:09:36.994Z,2.40
2019-02-24T13:10:36.992Z,2.40
2019-02-24T13:11:37.057Z,2.00
2019-02-24T13:12:36.966Z,2.20
2019-02-24T13:13:36.959Z,2.29
2019-02-24T13:14:37.001Z,2.40
2019-02-24T13:15:36.936Z,2.59
2019-02-24T13:16:36.938Z,2.50
2019-02-24T13:17:37.306Z,2.50
2019-02-24T13:18:36.980Z,2.40
2019-02-24T13:19:36.893Z,2.20
2019-02-24T13:20:36.876Z,2.40
2019-02-24T13:21:36.869Z,2.20
2019-02-24T13:22:36.867Z,1.90
2019-02-24T13:23:36.856Z,2.20
2019-02-24T13:24:36.838Z,2.20
2019-02-24T13:25:36.827Z,2.59
2019-02-24T13:26:36.811Z,2.20
2019-02-24T13:27:36.821Z,2.20
2019-02-24T13:28:36.789Z,2.20
2019-02-24T13:29:36.778Z,2.09
2019-02-24T13:30:36.767Z,2.00
2019-02-24T13:31:36.757Z,2.09
2019-02-24T13:32:36.762Z,2.00
2019-02-24T13:33:36.744Z,2.00
2019-02-24T13:34:36.728Z,2.00
2019-02-24T13:35:36.727Z,2.09
2019-02-24T13:36:36.704Z,2.20
2019-02-24T13:37:36.709Z,2.29